sensor_id;sensor_type;location;lat;lon;timestamp;pressure;altitude;pressure_sealevel;temperature;humidity
48872;BME280;36154;51.674;7.824;2022-10-22T00:01:31;100213.13;;;21.61;56.20
48872;BME280;36154;51.674;7.824;2022-10-22T00:03:56;100214.81;;;21.62;56.25
48872;BME280;36154;51.674;7.824;2022-10-22T00:06:21;100215.72;;;21.61;56.19
48872;BME280;36154;51.674;7.824;2022-10-22T00:08:46;100215.72;;;21.61;56.16
48872;BME280;36154;51.674;7.824;2022-10-22T00:11:14;100213.19;;;21.60;56.21
48872;BME280;36154;51.674;7.824;2022-10-22T00:13:40;100220.91;;;21.61;56.27
48872;BME280;36154;51.674;7.824;2022-10-22T00:16:06;100229.53;;;21.62;56.23
48872;BME280;36154;51.674;7.824;2022-10-22T00:18:31;100235.59;;;21.61;56.31
48872;BME280;36154;51.674;7.824;2022-10-22T00:20:57;100244.19;;;21.61;56.28
48872;BME280;36154;51.674;7.824;2022-10-22T00:23:22;100234.75;;;21.60;56.29
48872;BME280;36154;51.674;7.824;2022-10-22T00:25:47;100235.59;;;21.61;56.34
48872;BME280;36154;51.674;7.824;2022-10-22T00:28:13;100232.16;;;21.60;56.25
48872;BME280;36154;51.674;7.824;2022-10-22T00:30:39;100239.94;;;21.60;56.13
48872;BME280;36154;51.674;7.824;2022-10-22T00:33:04;100245.09;;;21.60;56.21
48872;BME280;36154;51.674;7.824;2022-10-22T00:35:29;100249.41;;;21.60;56.35
48872;BME280;36154;51.674;7.824;2022-10-22T00:37:54;100258.03;;;21.60;56.26
48872;BME280;36154;51.674;7.824;2022-10-22T00:40:20;100255.47;;;21.60;56.22
48872;BME280;36154;51.674;7.824;2022-10-22T00:42:45;100258.03;;;21.60;56.28
48872;BME280;36154;51.674;7.824;2022-10-22T00:47:39;100243.41;;;21.59;56.32
48872;BME280;36154;51.674;7.824;2022-10-22T00:50:13;100239.94;;;21.60;56.26
48872;BME280;36154;51.674;7.824;2022-10-22T00:52:39;100237.41;;;21.59;56.11
48872;BME280;36154;51.674;7.824;2022-10-22T00:55:05;100235.63;;;21.59;56.17
48872;BME280;36154;51.674;7.824;2022-10-22T00:57:32;100229.69;;;21.57;56.19
48872;BME280;36154;51.674;7.824;2022-10-22T00:59:58;100252.06;;;21.58;56.22
48872;BME280;36154;51.674;7.824;2022-10-22T01:02:25;100240.88;;;21.58;56.21
48872;BME280;36154;51.674;7.824;2022-10-22T01:04:50;100239.97;;;21.59;56.25
48872;BME280;36154;51.674;7.824;2022-10-22T01:07:17;100241.69;;;21.58;56.26
48872;BME280;36154;51.674;7.824;2022-10-22T01:10:26;100233.09;;;21.58;56.22
48872;BME280;36154;51.674;7.824;2022-10-22T01:13:11;100236.66;;;21.55;56.17
48872;BME280;36154;51.674;7.824;2022-10-22T01:16:01;100244.44;;;21.55;56.28
48872;BME280;36154;51.674;7.824;2022-10-22T01:18:50;100235.75;;;21.56;56.29
48872;BME280;36154;51.674;7.824;2022-10-22T01:21:32;100226.31;;;21.55;56.24
48872;BME280;36154;51.674;7.824;2022-10-22T01:24:24;100228.81;;;21.57;56.17
48872;BME280;36154;51.674;7.824;2022-10-22T01:27:06;100222.03;;;21.54;56.45
48872;BME280;36154;51.674;7.824;2022-10-22T01:29:44;100214.25;;;21.54;56.22
48872;BME280;36154;51.674;7.824;2022-10-22T01:32:15;100210.78;;;21.55;56.14
48872;BME280;36154;51.674;7.824;2022-10-22T01:34:46;100210.88;;;21.52;56.23
48872;BME280;36154;51.674;7.824;2022-10-22T01:37:14;100215.09;;;21.55;56.34
48872;BME280;36154;51.674;7.824;2022-10-22T01:39:41;100217.72;;;21.53;56.34
48872;BME280;36154;51.674;7.824;2022-10-22T01:42:07;100222.84;;;21.55;56.29
48872;BME280;36154;51.674;7.824;2022-10-22T01:44:34;100213.38;;;21.55;56.06
48872;BME280;36154;51.674;7.824;2022-10-22T02:00:24;100208.25;;;21.54;56.18
48872;BME280;36154;51.674;7.824;2022-10-22T02:03:06;100200.47;;;21.54;56.17
48872;BME280;36154;51.674;7.824;2022-10-22T02:05:38;100207.38;;;21.53;56.17
48872;BME280;36154;51.674;7.824;2022-10-22T02:08:08;100193.56;;;21.54;56.17
48872;BME280;36154;51.674;7.824;2022-10-22T02:10:38;100186.69;;;21.53;56.00
48872;BME280;36154;51.674;7.824;2022-10-22T02:13:09;100191.00;;;21.53;56.05
48872;BME280;36154;51.674;7.824;2022-10-22T02:15:37;100185.84;;;21.53;56.13
48872;BME280;36154;51.674;7.824;2022-10-22T02:18:05;100185.00;;;21.52;56.22
48872;BME280;36154;51.674;7.824;2022-10-22T02:20:34;100192.72;;;21.54;56.15
48872;BME280;36154;51.674;7.824;2022-10-22T02:23:00;100187.59;;;21.52;56.11
48872;BME280;36154;51.674;7.824;2022-10-22T02:25:33;100190.19;;;21.52;56.05
48872;BME280;36154;51.674;7.824;2022-10-22T02:30:27;100202.31;;;21.50;56.18
48872;BME280;36154;51.674;7.824;2022-10-22T02:32:58;100198.84;;;21.51;56.05
48872;BME280;36154;51.674;7.824;2022-10-22T02:35:27;100198.84;;;21.51;56.19
48872;BME280;36154;51.674;7.824;2022-10-22T02:37:54;100209.19;;;21.51;56.12
48872;BME280;36154;51.674;7.824;2022-10-22T02:40:21;100209.19;;;21.51;56.09
48872;BME280;36154;51.674;7.824;2022-10-22T02:42:48;100209.19;;;21.51;55.98
48872;BME280;36154;51.674;7.824;2022-10-22T02:45:15;100204.00;;;21.51;56.05
48872;BME280;36154;51.674;7.824;2022-10-22T02:47:40;100216.94;;;21.51;56.10
48872;BME280;36154;51.674;7.824;2022-10-22T02:50:06;100214.34;;;21.51;56.10
48872;BME280;36154;51.674;7.824;2022-10-22T02:52:31;100214.34;;;21.51;56.11
48872;BME280;36154;51.674;7.824;2022-10-22T02:54:57;100216.94;;;21.51;55.97
48872;BME280;36154;51.674;7.824;2022-10-22T02:57:22;100224.72;;;21.51;56.08
48872;BME280;36154;51.674;7.824;2022-10-22T02:59:47;100223.00;;;21.50;56.07
48872;BME280;36154;51.674;7.824;2022-10-22T03:02:12;100217.84;;;21.50;56.05
48872;BME280;36154;51.674;7.824;2022-10-22T03:04:38;100223.88;;;21.51;56.05
48872;BME280;36154;51.674;7.824;2022-10-22T03:07:03;100224.72;;;21.51;56.06
48872;BME280;36154;51.674;7.824;2022-10-22T03:09:28;100213.53;;;21.51;55.97
48872;BME280;36154;51.674;7.824;2022-10-22T03:11:54;100219.53;;;21.51;55.96
48872;BME280;36154;51.674;7.824;2022-10-22T03:14:19;100217.78;;;21.52;55.95
48872;BME280;36154;51.674;7.824;2022-10-22T03:16:44;100213.47;;;21.52;55.87
48872;BME280;36154;51.674;7.824;2022-10-22T03:19:09;100211.78;;;21.51;55.91
48872;BME280;36154;51.674;7.824;2022-10-22T03:21:41;100218.69;;;21.51;55.74
48872;BME280;36154;51.674;7.824;2022-10-22T03:24:26;100212.66;;;21.50;56.00
48872;BME280;36154;51.674;7.824;2022-10-22T03:26:53;100211.00;;;21.49;56.11
48872;BME280;36154;51.674;7.824;2022-10-22T03:29:21;100214.34;;;21.51;56.05
48872;BME280;36154;51.674;7.824;2022-10-22T03:31:48;100218.69;;;21.51;55.97
48872;BME280;36154;51.674;7.824;2022-10-22T03:34:13;100223.00;;;21.50;55.96
48872;BME280;36154;51.674;7.824;2022-10-22T03:36:40;100240.25;;;21.51;55.95
48872;BME280;36154;51.674;7.824;2022-10-22T03:39:06;100233.38;;;21.50;55.94
48872;BME280;36154;51.674;7.824;2022-10-22T03:41:31;100230.78;;;21.50;55.84
48872;BME280;36154;51.674;7.824;2022-10-22T03:43:59;100237.69;;;21.49;55.91
48872;BME280;36154;51.674;7.824;2022-10-22T03:46:25;100244.56;;;21.51;55.95
48872;BME280;36154;51.674;7.824;2022-10-22T03:48:51;100237.69;;;21.49;55.98
48872;BME280;36154;51.674;7.824;2022-10-22T03:51:16;100249.75;;;21.51;55.95
48872;BME280;36154;51.674;7.824;2022-10-22T03:53:41;100243.72;;;21.50;55.87
48872;BME280;36154;51.674;7.824;2022-10-22T03:56:09;100240.28;;;21.49;55.94
48872;BME280;36154;51.674;7.824;2022-10-22T03:58:35;100242.81;;;21.51;55.86
48872;BME280;36154;51.674;7.824;2022-10-22T04:01:08;100255.75;;;21.51;55.87
48872;BME280;36154;51.674;7.824;2022-10-22T04:03:34;100259.25;;;21.50;55.79
48872;BME280;36154;51.674;7.824;2022-10-22T04:06:10;100255.75;;;21.51;55.81
48872;BME280;36154;51.674;7.824;2022-10-22T04:08:40;100252.34;;;21.51;55.73
48872;BME280;36154;51.674;7.824;2022-10-22T04:11:06;100259.13;;;21.53;55.95
48872;BME280;36154;51.674;7.824;2022-10-22T04:13:31;100265.19;;;21.54;55.81
48872;BME280;36154;51.674;7.824;2022-10-22T04:16:07;100266.91;;;21.53;55.77
48872;BME280;36154;51.674;7.824;2022-10-22T04:18:32;100266.00;;;21.54;55.73
48872;BME280;36154;51.674;7.824;2022-10-22T04:20:58;100259.13;;;21.53;55.67
48872;BME280;36154;51.674;7.824;2022-10-22T04:23:23;100265.19;;;21.54;55.85
48872;BME280;36154;51.674;7.824;2022-10-22T04:25:48;100267.72;;;21.55;55.75
48872;BME280;36154;51.674;7.824;2022-10-22T04:28:13;100265.19;;;21.54;55.70
48872;BME280;36154;51.674;7.824;2022-10-22T04:30:39;100264.31;;;21.53;55.72
48872;BME280;36154;51.674;7.824;2022-10-22T04:33:04;100260.00;;;21.54;55.65
48872;BME280;36154;51.674;7.824;2022-10-22T04:35:29;100269.44;;;21.55;55.63
48872;BME280;36154;51.674;7.824;2022-10-22T04:37:55;100274.63;;;21.55;55.70
48872;BME280;36154;51.674;7.824;2022-10-22T04:40:20;100278.06;;;21.55;55.63
48872;BME280;36154;51.674;7.824;2022-10-22T04:42:45;100277.25;;;21.53;55.62
48872;BME280;36154;51.674;7.824;2022-10-22T04:45:11;100272.91;;;21.55;55.62
48872;BME280;36154;51.674;7.824;2022-10-22T04:47:36;100270.31;;;21.55;55.50
48872;BME280;36154;51.674;7.824;2022-10-22T04:50:01;100275.47;;;21.55;55.51
48872;BME280;36154;51.674;7.824;2022-10-22T04:52:27;100272.91;;;21.55;55.76
48872;BME280;36154;51.674;7.824;2022-10-22T04:54:52;100272.94;;;21.54;55.50
48872;BME280;36154;51.674;7.824;2022-10-22T04:57:17;100278.13;;;21.54;55.54
48872;BME280;36154;51.674;7.824;2022-10-22T04:59:43;100276.38;;;21.54;55.58
48872;BME280;36154;51.674;7.824;2022-10-22T05:02:08;100277.19;;;21.55;55.47
48872;BME280;36154;51.674;7.824;2022-10-22T05:04:33;100276.38;;;21.54;55.55
48872;BME280;36154;51.674;7.824;2022-10-22T05:06:58;100276.38;;;21.54;55.58
48872;BME280;36154;51.674;7.824;2022-10-22T05:09:24;100273.81;;;21.53;55.43
48872;BME280;36154;51.674;7.824;2022-10-22T05:11:51;100279.84;;;21.53;55.39
48872;BME280;36154;51.674;7.824;2022-10-22T05:14:19;100279.84;;;21.53;55.48
48872;BME280;36154;51.674;7.824;2022-10-22T05:16:45;100279.84;;;21.53;55.47
48872;BME280;36154;51.674;7.824;2022-10-22T05:19:18;100278.97;;;21.54;55.46
48872;BME280;36154;51.674;7.824;2022-10-22T05:21:44;100279.84;;;21.53;55.42
48872;BME280;36154;51.674;7.824;2022-10-22T05:24:09;100287.59;;;21.53;55.41
48872;BME280;36154;51.674;7.824;2022-10-22T05:26:34;100279.84;;;21.53;55.33
48872;BME280;36154;51.674;7.824;2022-10-22T05:28:59;100287.59;;;21.53;55.46
48872;BME280;36154;51.674;7.824;2022-10-22T05:31:25;100295.38;;;21.53;55.50
48872;BME280;36154;51.674;7.824;2022-10-22T05:33:52;100300.53;;;21.53;55.34
48872;BME280;36154;51.674;7.824;2022-10-22T05:36:20;100296.28;;;21.52;55.40
48872;BME280;36154;51.674;7.824;2022-10-22T05:38:46;100299.75;;;21.51;55.42
48872;BME280;36154;51.674;7.824;2022-10-22T05:41:20;100298.00;;;21.52;55.49
48872;BME280;36154;51.674;7.824;2022-10-22T05:43:46;100304.06;;;21.52;55.42
48872;BME280;36154;51.674;7.824;2022-10-22T05:46:22;100297.16;;;21.51;55.40
48872;BME280;36154;51.674;7.824;2022-10-22T05:48:55;100304.06;;;21.52;55.48
48872;BME280;36154;51.674;7.824;2022-10-22T05:51:22;100302.34;;;21.51;55.34
48872;BME280;36154;51.674;7.824;2022-10-22T05:53:54;100308.34;;;21.52;55.29
48872;BME280;36154;51.674;7.824;2022-10-22T05:56:20;100304.09;;;21.51;55.56
48872;BME280;36154;51.674;7.824;2022-10-22T05:58:46;100317.88;;;21.51;55.17
48872;BME280;36154;51.674;7.824;2022-10-22T06:01:17;100315.28;;;21.51;55.28
48872;BME280;36154;51.674;7.824;2022-10-22T06:03:43;100322.22;;;21.51;55.33
48872;BME280;36154;51.674;7.824;2022-10-22T06:06:33;100328.22;;;21.51;55.36
48872;BME280;36154;51.674;7.824;2022-10-22T06:09:02;100317.88;;;21.51;55.48
48872;BME280;36154;51.674;7.824;2022-10-22T06:11:28;100330.88;;;21.49;55.36
48872;BME280;36154;51.674;7.824;2022-10-22T06:13:53;100329.13;;;21.50;55.49
48872;BME280;36154;51.674;7.824;2022-10-22T06:16:19;100336.88;;;21.50;55.35
48872;BME280;36154;51.674;7.824;2022-10-22T06:18:44;100336.88;;;21.50;55.37
48872;BME280;36154;51.674;7.824;2022-10-22T06:21:11;100330.81;;;21.51;55.37
48872;BME280;36154;51.674;7.824;2022-10-22T06:23:38;100329.13;;;21.50;55.42
48872;BME280;36154;51.674;7.824;2022-10-22T06:26:04;100338.63;;;21.49;55.31
48872;BME280;36154;51.674;7.824;2022-10-22T06:28:30;100344.63;;;21.50;55.38
48872;BME280;36154;51.674;7.824;2022-10-22T06:30:57;100352.41;;;21.50;55.33
48872;BME280;36154;51.674;7.824;2022-10-22T06:33:23;100359.34;;;21.49;55.23
48872;BME280;36154;51.674;7.824;2022-10-22T06:35:49;100353.28;;;21.51;55.47
48872;BME280;36154;51.674;7.824;2022-10-22T06:38:14;100357.56;;;21.50;55.37
48872;BME280;36154;51.674;7.824;2022-10-22T06:40:39;100368.78;;;21.51;55.23
48872;BME280;36154;51.674;7.824;2022-10-22T06:43:08;100362.75;;;21.50;55.27
48872;BME280;36154;51.674;7.824;2022-10-22T06:45:33;100368.78;;;21.51;55.43
48872;BME280;36154;51.674;7.824;2022-10-22T06:47:58;100380.88;;;21.50;55.34
48872;BME280;36154;51.674;7.824;2022-10-22T06:50:24;100380.88;;;21.50;55.22
48872;BME280;36154;51.674;7.824;2022-10-22T06:52:49;100385.16;;;21.51;55.60
48872;BME280;36154;51.674;7.824;2022-10-22T06:55:14;100383.47;;;21.50;55.26
48872;BME280;36154;51.674;7.824;2022-10-22T06:57:40;100393.81;;;21.50;55.31
48872;BME280;36154;51.674;7.824;2022-10-22T07:00:06;100386.97;;;21.49;55.25
48872;BME280;36154;51.674;7.824;2022-10-22T07:02:31;100402.44;;;21.51;55.21
48872;BME280;36154;51.674;7.824;2022-10-22T07:04:56;100398.09;;;21.51;55.26
48872;BME280;36154;51.674;7.824;2022-10-22T07:07:22;100404.16;;;21.50;55.31
48872;BME280;36154;51.674;7.824;2022-10-22T07:09:47;100408.47;;;21.51;55.27
48872;BME280;36154;51.674;7.824;2022-10-22T07:12:14;100399.84;;;21.51;55.30
48872;BME280;36154;51.674;7.824;2022-10-22T07:14:39;100404.16;;;21.50;55.24
48872;BME280;36154;51.674;7.824;2022-10-22T07:17:04;100411.94;;;21.50;55.16
48872;BME280;36154;51.674;7.824;2022-10-22T07:19:29;100409.34;;;21.50;55.22
48872;BME280;36154;51.674;7.824;2022-10-22T07:21:55;100419.69;;;21.50;55.19
48872;BME280;36154;51.674;7.824;2022-10-22T07:24:21;100425.72;;;21.51;55.13
48872;BME280;36154;51.674;7.824;2022-10-22T07:26:47;100426.56;;;21.51;55.14
48872;BME280;36154;51.674;7.824;2022-10-22T07:29:12;100425.69;;;21.52;55.50
48872;BME280;36154;51.674;7.824;2022-10-22T07:31:39;100433.44;;;21.52;55.19
48872;BME280;36154;51.674;7.824;2022-10-22T07:34:05;100431.75;;;21.51;55.12
48872;BME280;36154;51.674;7.824;2022-10-22T07:36:30;100441.22;;;21.52;55.06
48872;BME280;36154;51.674;7.824;2022-10-22T07:38:57;100438.63;;;21.52;55.05
48872;BME280;36154;51.674;7.824;2022-10-22T07:41:23;100443.81;;;21.52;55.22
48872;BME280;36154;51.674;7.824;2022-10-22T07:43:49;100448.97;;;21.52;55.17
48872;BME280;36154;51.674;7.824;2022-10-22T07:46:14;100445.47;;;21.53;55.04
48872;BME280;36154;51.674;7.824;2022-10-22T07:48:39;100448.97;;;21.52;55.08
48872;BME280;36154;51.674;7.824;2022-10-22T07:51:05;100445.47;;;21.53;55.28
48872;BME280;36154;51.674;7.824;2022-10-22T07:53:31;100454.16;;;21.52;55.09
48872;BME280;36154;51.674;7.824;2022-10-22T07:55:56;100457.53;;;21.54;54.67
48872;BME280;36154;51.674;7.824;2022-10-22T07:58:22;100458.41;;;21.53;54.89
48872;BME280;36154;51.674;7.824;2022-10-22T08:00:48;100451.53;;;21.54;55.12
48872;BME280;36154;51.674;7.824;2022-10-22T08:03:16;100461.00;;;21.53;55.18
48872;BME280;36154;51.674;7.824;2022-10-22T08:05:42;100456.69;;;21.54;55.16
48872;BME280;36154;51.674;7.824;2022-10-22T08:08:09;100462.72;;;21.54;54.97
48872;BME280;36154;51.674;7.824;2022-10-22T08:10:34;100461.88;;;21.54;55.46
48872;BME280;36154;51.674;7.824;2022-10-22T08:13:00;100469.63;;;21.54;55.23
48872;BME280;36154;51.674;7.824;2022-10-22T08:15:25;100463.56;;;21.55;55.22
48872;BME280;36154;51.674;7.824;2022-10-22T08:17:51;100466.13;;;21.55;55.03
48872;BME280;36154;51.674;7.824;2022-10-22T08:20:17;100475.66;;;21.54;55.13
48872;BME280;36154;51.674;7.824;2022-10-22T08:22:43;100479.06;;;21.55;55.03
48872;BME280;36154;51.674;7.824;2022-10-22T08:25:09;100479.94;;;21.55;55.11
48872;BME280;36154;51.674;7.824;2022-10-22T08:27:34;100480.84;;;21.54;55.12
48872;BME280;36154;51.674;7.824;2022-10-22T08:29:59;100483.41;;;21.54;55.17
48872;BME280;36154;51.674;7.824;2022-10-22T08:32:24;100488.59;;;21.54;55.10
48872;BME280;36154;51.674;7.824;2022-10-22T08:34:50;100497.19;;;21.55;55.26
48872;BME280;36154;51.674;7.824;2022-10-22T08:37:15;100489.44;;;21.55;55.34
48872;BME280;36154;51.674;7.824;2022-10-22T08:39:42;100498.00;;;21.57;55.51
48872;BME280;36154;51.674;7.824;2022-10-22T08:50:22;100498.84;;;21.57;55.71
48872;BME280;36154;51.674;7.824;2022-10-22T08:52:52;100507.41;;;21.59;55.49
48872;BME280;36154;51.674;7.824;2022-10-22T08:55:22;100502.25;;;21.59;55.51
48872;BME280;36154;51.674;7.824;2022-10-22T08:58:02;100504.81;;;21.59;55.63
48872;BME280;36154;51.674;7.824;2022-10-22T09:00:35;100513.38;;;21.61;55.73
48872;BME280;36154;51.674;7.824;2022-10-22T09:06:00;100507.31;;;21.62;55.69
48872;BME280;36154;51.674;7.824;2022-10-22T09:08:28;100514.25;;;21.62;55.74
48872;BME280;36154;51.674;7.824;2022-10-22T09:11:01;100521.06;;;21.64;55.62
48872;BME280;36154;51.674;7.824;2022-10-22T09:13:27;100523.66;;;21.64;55.67
48872;BME280;36154;51.674;7.824;2022-10-22T09:15:55;100517.69;;;21.62;55.66
48872;BME280;36154;51.674;7.824;2022-10-22T09:18:34;100522.81;;;21.64;55.72
48872;BME280;36154;51.674;7.824;2022-10-22T09:23:43;100527.94;;;21.65;55.67
48872;BME280;36154;51.674;7.824;2022-10-22T09:26:15;100530.50;;;21.67;55.70
48872;BME280;36154;51.674;7.824;2022-10-22T09:28:41;100538.25;;;21.67;55.66
48872;BME280;36154;51.674;7.824;2022-10-22T09:31:12;100536.50;;;21.67;55.69
48872;BME280;36154;51.674;7.824;2022-10-22T09:33:41;100533.03;;;21.68;55.64
48872;BME280;36154;51.674;7.824;2022-10-22T09:36:07;100533.97;;;21.66;55.63
48872;BME280;36154;51.674;7.824;2022-10-22T09:38:44;100539.88;;;21.70;55.40
48872;BME280;36154;51.674;7.824;2022-10-22T09:41:10;100537.34;;;21.68;55.66
48872;BME280;36154;51.674;7.824;2022-10-22T09:43:35;100539.94;;;21.68;55.84
48872;BME280;36154;51.674;7.824;2022-10-22T09:46:06;100546.84;;;21.67;55.73
48872;BME280;36154;51.674;7.824;2022-10-22T09:48:35;100546.84;;;21.67;55.69
48872;BME280;36154;51.674;7.824;2022-10-22T09:51:05;100548.56;;;21.68;55.76
48872;BME280;36154;51.674;7.824;2022-10-22T09:53:44;100548.56;;;21.68;55.67
48872;BME280;36154;51.674;7.824;2022-10-22T09:56:24;100558.91;;;21.68;55.76
48872;BME280;36154;51.674;7.824;2022-10-22T09:58:49;100558.91;;;21.68;55.59
48872;BME280;36154;51.674;7.824;2022-10-22T10:01:33;100561.50;;;21.68;55.68
48872;BME280;36154;51.674;7.824;2022-10-22T10:04:07;100568.41;;;21.68;55.65
48872;BME280;36154;51.674;7.824;2022-10-22T10:06:34;100571.88;;;21.68;55.77
48872;BME280;36154;51.674;7.824;2022-10-22T10:09:00;100569.28;;;21.68;55.99
48872;BME280;36154;51.674;7.824;2022-10-22T10:11:36;100577.88;;;21.69;55.69
48872;BME280;36154;51.674;7.824;2022-10-22T10:14:16;100582.22;;;21.68;55.73
48872;BME280;36154;51.674;7.824;2022-10-22T10:16:56;100580.47;;;21.69;55.89
48872;BME280;36154;51.674;7.824;2022-10-22T10:19:40;100588.22;;;21.69;55.93
48872;BME280;36154;51.674;7.824;2022-10-22T10:25:14;100591.66;;;21.70;55.87
48872;BME280;36154;51.674;7.824;2022-10-22T10:27:52;100597.75;;;21.68;55.68
48872;BME280;36154;51.674;7.824;2022-10-22T10:30:22;100591.66;;;21.70;55.56
48872;BME280;36154;51.674;7.824;2022-10-22T10:33:01;100588.19;;;21.71;55.74
48872;BME280;36154;51.674;7.824;2022-10-22T10:35:55;100589.88;;;21.72;55.79
48872;BME280;36154;51.674;7.824;2022-10-22T10:38:26;100595.91;;;21.72;55.58
48872;BME280;36154;51.674;7.824;2022-10-22T10:40:57;100596.78;;;21.71;55.64
48872;BME280;36154;51.674;7.824;2022-10-22T10:43:39;100592.44;;;21.72;55.58
48872;BME280;36154;51.674;7.824;2022-10-22T10:46:31;100594.16;;;21.73;55.63
48872;BME280;36154;51.674;7.824;2022-10-22T10:49:04;100599.34;;;21.73;55.70
48872;BME280;36154;51.674;7.824;2022-10-22T10:54:20;100600.22;;;21.72;56.06
48872;BME280;36154;51.674;7.824;2022-10-22T10:56:54;100595.03;;;21.72;56.08
48872;BME280;36154;51.674;7.824;2022-10-22T10:59:30;100608.00;;;21.72;56.24
48872;BME280;36154;51.674;7.824;2022-10-22T11:07:24;100608.00;;;21.72;56.55
48872;BME280;36154;51.674;7.824;2022-10-22T11:09:56;100608.84;;;21.72;56.64
48872;BME280;36154;51.674;7.824;2022-10-22T11:12:34;100609.69;;;21.73;56.74
48872;BME280;36154;51.674;7.824;2022-10-22T11:15:07;100613.13;;;21.73;56.84
48872;BME280;36154;51.674;7.824;2022-10-22T11:17:39;100619.22;;;21.72;57.13
48872;BME280;36154;51.674;7.824;2022-10-22T11:25:59;100627.78;;;21.74;57.89
48872;BME280;36154;51.674;7.824;2022-10-22T11:28:36;100629.50;;;21.75;58.28
48872;BME280;36154;51.674;7.824;2022-10-22T11:31:09;100630.31;;;21.76;58.01
48872;BME280;36154;51.674;7.824;2022-10-22T11:36:11;100629.41;;;21.77;58.07
48872;BME280;36154;51.674;7.824;2022-10-22T11:38:36;100642.34;;;21.77;58.07
48872;BME280;36154;51.674;7.824;2022-10-22T11:41:13;100632.88;;;21.77;58.21
48872;BME280;36154;51.674;7.824;2022-10-22T11:51:36;100615.59;;;21.78;57.77
48872;BME280;36154;51.674;7.824;2022-10-22T11:54:29;100620.75;;;21.78;57.95
48872;BME280;36154;51.674;7.824;2022-10-22T12:02:42;100622.47;;;21.79;58.06
48872;BME280;36154;51.674;7.824;2022-10-22T12:08:22;100618.13;;;21.79;57.93
48872;BME280;36154;51.674;7.824;2022-10-22T12:13:26;100629.31;;;21.80;57.88
48872;BME280;36154;51.674;7.824;2022-10-22T12:15:57;100621.59;;;21.78;57.82
48872;BME280;36154;51.674;7.824;2022-10-22T12:18:38;100624.19;;;21.78;57.86
48872;BME280;36154;51.674;7.824;2022-10-22T12:21:04;100634.50;;;21.80;57.83
48872;BME280;36154;51.674;7.824;2022-10-22T12:23:33;100622.47;;;21.79;57.85
48872;BME280;36154;51.674;7.824;2022-10-22T12:25:59;100623.34;;;21.78;57.72
48872;BME280;36154;51.674;7.824;2022-10-22T12:28:24;100622.50;;;21.77;57.51
48872;BME280;36154;51.674;7.824;2022-10-22T12:30:50;100625.94;;;21.78;57.57
48872;BME280;36154;51.674;7.824;2022-10-22T12:33:19;100618.22;;;21.76;57.50
48872;BME280;36154;51.674;7.824;2022-10-22T12:35:46;100615.59;;;21.78;57.33
48872;BME280;36154;51.674;7.824;2022-10-22T12:38:18;100619.06;;;21.77;57.40
48872;BME280;36154;51.674;7.824;2022-10-22T12:40:45;100624.22;;;21.77;57.29
48872;BME280;36154;51.674;7.824;2022-10-22T12:43:13;100621.63;;;21.77;57.21
48872;BME280;36154;51.674;7.824;2022-10-22T12:45:40;100626.81;;;21.77;57.08
48872;BME280;36154;51.674;7.824;2022-10-22T12:48:14;100627.69;;;21.77;57.09
48872;BME280;36154;51.674;7.824;2022-10-22T12:50:42;100634.59;;;21.77;57.11
48872;BME280;36154;51.674;7.824;2022-10-22T12:53:14;100622.56;;;21.76;57.04
48872;BME280;36154;51.674;7.824;2022-10-22T12:55:41;100628.56;;;21.76;57.02
48872;BME280;36154;51.674;7.824;2022-10-22T12:58:18;100629.41;;;21.77;57.02
48872;BME280;36154;51.674;7.824;2022-10-22T13:00:46;100624.22;;;21.77;57.03
48872;BME280;36154;51.674;7.824;2022-10-22T13:03:24;100625.16;;;21.76;56.94
48872;BME280;36154;51.674;7.824;2022-10-22T13:05:50;100625.94;;;21.78;56.95
48872;BME280;36154;51.674;7.824;2022-10-22T13:08:17;100624.22;;;21.77;56.93
48872;BME280;36154;51.674;7.824;2022-10-22T13:10:50;100625.09;;;21.77;56.91
48872;BME280;36154;51.674;7.824;2022-10-22T13:16:19;100621.63;;;21.77;57.19
48872;BME280;36154;51.674;7.824;2022-10-22T13:18:46;100623.44;;;21.75;57.21
48872;BME280;36154;51.674;7.824;2022-10-22T13:24:01;100628.56;;;21.76;57.09
48872;BME280;36154;51.674;7.824;2022-10-22T13:26:35;100612.28;;;21.73;56.80
48872;BME280;36154;51.674;7.824;2022-10-22T13:29:08;100622.56;;;21.76;56.68
48872;BME280;36154;51.674;7.824;2022-10-22T13:31:34;100619.97;;;21.76;56.60
48872;BME280;36154;51.674;7.824;2022-10-22T13:34:04;100623.47;;;21.73;56.67
48872;BME280;36154;51.674;7.824;2022-10-22T13:36:31;100626.03;;;21.75;56.65
48872;BME280;36154;51.674;7.824;2022-10-22T13:38:56;100624.34;;;21.74;56.57
48872;BME280;36154;51.674;7.824;2022-10-22T13:41:25;100619.16;;;21.74;56.52
48872;BME280;36154;51.674;7.824;2022-10-22T13:43:51;100628.66;;;21.73;56.36
48872;BME280;36154;51.674;7.824;2022-10-22T13:46:17;100621.81;;;21.72;56.44
48872;BME280;36154;51.674;7.824;2022-10-22T13:48:43;100627.81;;;21.73;56.25
48872;BME280;36154;51.674;7.824;2022-10-22T13:51:14;100623.53;;;21.72;56.25
48872;BME280;36154;51.674;7.824;2022-10-22T13:53:40;100627.81;;;21.73;56.11
48872;BME280;36154;51.674;7.824;2022-10-22T13:56:05;100634.72;;;21.74;56.17
48872;BME280;36154;51.674;7.824;2022-10-22T13:58:30;100633.84;;;21.73;56.06
48872;BME280;36154;51.674;7.824;2022-10-22T14:00:57;100643.34;;;21.73;55.89
48872;BME280;36154;51.674;7.824;2022-10-22T14:03:26;100651.13;;;21.73;55.80
48872;BME280;36154;51.674;7.824;2022-10-22T14:05:52;100643.34;;;21.73;55.79
48872;BME280;36154;51.674;7.824;2022-10-22T14:08:19;100646.00;;;21.71;55.54
48872;BME280;36154;51.674;7.824;2022-10-22T14:10:46;100652.88;;;21.72;55.66
48872;BME280;36154;51.674;7.824;2022-10-22T14:13:13;100641.66;;;21.72;55.64
48872;BME280;36154;51.674;7.824;2022-10-22T14:15:39;100643.41;;;21.71;55.56